Time;durP1;ratioP1;P1;durP2;ratioP2;P2;SDS_P1;SDS_P2;PMS_P1;PMS_P2;Temp;Humidity;BMP_temperature;BMP_pressure;BME280_temperature;BME280_humidity;BME280_pressure;Samples;Min_cycle;Max_cycle;Signal;HPM_P1;HPM_P2
2021/05/14 00:01:20;;;;;;;10.52;6.03;;;;;;;8.64;73.82;100559.97;5030236;28;20053;-66
2021/05/14 00:03:47;;;;;;;9.40;5.25;;;;;;;8.60;73.43;100555.69;5036349;28;20025;-66
2021/05/14 00:06:13;;;;;;;12.18;5.70;;;;;;;8.77;74.53;100556.28;5031618;28;20028;-66
2021/05/14 00:08:39;;;;;;;9.57;5.32;;;;;;;8.83;73.94;100545.75;5044011;28;20039;-66
2021/05/14 00:11:04;;;;;;;8.57;5.03;;;;;;;8.56;73.28;100555.72;5033685;28;20029;-66
2021/05/14 00:13:31;;;;;;;10.02;5.28;;;;;;;8.04;74.46;100548.72;5048055;28;20037;-66
2021/05/14 00:15:57;;;;;;;13.55;6.15;;;;;;;7.56;78.60;100547.69;5037838;28;20024;-66
2021/05/14 00:18:23;;;;;;;12.52;6.53;;;;;;;7.70;78.70;100563.06;5040842;28;20035;-66
2021/05/14 00:20:50;;;;;;;11.55;6.75;;;;;;;7.79;77.78;100557.75;5040200;28;20031;-66
2021/05/14 00:23:16;;;;;;;10.23;6.03;;;;;;;7.87;75.52;100550.72;5016854;28;20067;-67
2021/05/14 00:25:42;;;;;;;9.25;5.18;;;;;;;7.82;75.24;100556.88;5038818;28;20060;-66
2021/05/14 00:28:07;;;;;;;9.70;5.10;;;;;;;7.92;75.09;100550.66;5029628;28;20059;-66
2021/05/14 00:30:33;;;;;;;10.93;5.85;;;;;;;8.05;74.28;100560.84;5021910;28;20033;-66
2021/05/14 00:32:58;;;;;;;10.65;6.60;;;;;;;8.06;76.27;100554.78;5040684;28;20551;-66
2021/05/14 00:35:24;;;;;;;13.35;6.78;;;;;;;8.16;75.95;100558.09;5038859;28;20064;-66
2021/05/14 00:37:49;;;;;;;14.38;7.47;;;;;;;8.33;75.09;100550.03;5043683;28;20106;-66
2021/05/14 00:40:15;;;;;;;12.75;7.40;;;;;;;8.09;76.21;100553.00;5015162;28;20024;-66
2021/05/14 00:42:41;;;;;;;12.48;7.18;;;;;;;8.28;75.42;100544.03;5038232;28;20025;-66
2021/05/14 00:45:08;;;;;;;16.17;8.20;;;;;;;8.27;76.44;100544.94;5013650;28;20784;-66
2021/05/14 00:47:34;;;;;;;14.40;7.43;;;;;;;8.20;76.05;100543.28;5038534;28;20029;-66
2021/05/14 00:50:00;;;;;;;13.18;7.88;;;;;;;8.11;75.70;100546.03;5019212;28;20041;-65
2021/05/14 00:52:27;;;;;;;11.10;7.18;;;;;;;7.89;75.78;100543.75;5036265;28;20025;-66
2021/05/14 00:54:53;;;;;;;12.93;6.82;;;;;;;7.74;75.65;100534.41;5042497;28;20036;-66
2021/05/14 00:57:19;;;;;;;12.32;7.80;;;;;;;7.62;76.16;100546.72;5040833;28;20116;-66
2021/05/14 00:59:46;;;;;;;12.02;8.00;;;;;;;7.32;76.31;100515.06;5040827;28;20744;-66
2021/05/14 01:02:12;;;;;;;15.70;9.75;;;;;;;7.35;80.18;100540.13;5059643;28;20045;-66
2021/05/14 01:04:38;;;;;;;15.20;9.52;;;;;;;7.26;79.83;100541.13;5040431;28;20399;-66
2021/05/14 01:07:05;;;;;;;21.08;11.38;;;;;;;7.19;82.68;100545.50;5057315;28;20032;-66
2021/05/14 01:09:32;;;;;;;14.52;7.80;;;;;;;7.00;80.87;100537.06;5043603;28;20033;-66
2021/05/14 01:11:57;;;;;;;13.88;8.27;;;;;;;6.90;79.99;100538.06;5041337;28;20063;-66
2021/05/14 01:14:23;;;;;;;17.58;8.35;;;;;;;7.11;79.84;100541.28;5034835;28;20063;-66
2021/05/14 01:16:49;;;;;;;15.25;9.25;;;;;;;7.10;80.56;100531.78;5040792;28;20033;-66
2021/05/14 01:19:14;;;;;;;16.30;9.43;;;;;;;7.17;79.91;100533.44;5046853;28;20021;-66
2021/05/14 01:21:40;;;;;;;15.82;9.40;;;;;;;7.09;79.21;100530.03;5058769;28;20040;-66
2021/05/14 01:24:06;;;;;;;16.55;10.75;;;;;;;7.07;81.79;100529.22;5044251;28;20056;-66
2021/05/14 01:26:32;;;;;;;19.00;9.95;;;;;;;7.12;81.11;100519.63;5039632;28;20059;-66
2021/05/14 01:28:58;;;;;;;15.57;9.98;;;;;;;7.09;80.23;100519.66;5044911;28;20468;-66
2021/05/14 01:31:24;;;;;;;15.07;9.55;;;;;;;7.08;79.35;100518.81;5040848;28;20036;-66
2021/05/14 01:33:50;;;;;;;14.20;8.75;;;;;;;7.07;80.19;100508.44;5058754;28;20067;-67
2021/05/14 01:36:16;;;;;;;16.95;9.10;;;;;;;6.86;80.04;100515.59;5050323;28;20028;-66
2021/05/14 01:38:42;;;;;;;17.30;9.20;;;;;;;6.80;80.52;100526.03;5062098;28;20020;-66
2021/05/14 01:41:08;;;;;;;18.23;9.95;;;;;;;6.90;80.13;100517.28;5061828;28;20487;-66
2021/05/14 01:43:33;;;;;;;15.30;8.88;;;;;;;6.96;78.56;100504.22;5058288;28;20025;-66
2021/05/14 01:46:01;;;;;;;14.18;8.25;;;;;;;7.05;77.95;100521.44;5060472;28;20043;-66
2021/05/14 01:48:26;;;;;;;17.75;10.25;;;;;;;7.19;79.01;100516.06;5063715;28;20729;-67
2021/05/14 01:50:52;;;;;;;16.65;9.38;;;;;;;7.27;79.29;100517.72;5059540;28;20024;-66
2021/05/14 01:53:17;;;;;;;16.65;9.25;;;;;;;7.29;79.66;100515.09;5034453;28;20024;-66
2021/05/14 01:55:43;;;;;;;18.58;10.60;;;;;;;7.25;79.88;100508.22;5057241;28;20158;-66
2021/05/14 01:58:09;;;;;;;17.17;10.25;;;;;;;7.08;81.21;100515.34;5037831;28;20058;-67
2021/05/14 02:00:35;;;;;;;17.50;9.95;;;;;;;6.85;80.43;100521.66;5042969;28;20045;-67
2021/05/14 02:03:01;;;;;;;18.67;10.38;;;;;;;6.56;81.26;100521.09;5022385;28;20040;-66
2021/05/14 02:05:27;;;;;;;19.65;10.45;;;;;;;6.37;82.90;100516.03;5018743;28;20056;-66
2021/05/14 02:07:55;;;;;;;18.52;10.13;;;;;;;6.30;83.59;100516.97;5032594;28;20786;-66
2021/05/14 02:10:21;;;;;;;16.77;8.82;;;;;;;6.28;82.17;100516.13;5046417;28;20032;-66
2021/05/14 02:12:47;;;;;;;19.17;9.38;;;;;;;6.56;82.08;100516.75;5040342;28;20029;-66
2021/05/14 02:15:13;;;;;;;20.45;10.85;;;;;;;6.63;82.33;100491.59;5038260;28;20021;-66
2021/05/14 02:17:38;;;;;;;19.88;10.90;;;;;;;6.82;81.42;100507.84;5029299;28;20033;-66
2021/05/14 02:20:06;;;;;;;21.58;10.70;;;;;;;6.81;81.27;100507.00;5034358;28;20430;-66
2021/05/14 02:22:33;;;;;;;17.48;9.18;;;;;;;6.87;83.09;100493.94;5031251;28;20128;-66
2021/05/14 02:24:59;;;;;;;18.27;10.43;;;;;;;7.08;82.05;100510.16;5036372;28;20036;-66
2021/05/14 02:27:24;;;;;;;18.50;9.77;;;;;;;7.18;81.18;100507.44;5033028;28;20029;-66
2021/05/14 02:29:50;;;;;;;18.50;9.70;;;;;;;7.21;81.65;100502.22;5037152;28;20101;-66
2021/05/14 02:32:15;;;;;;;18.90;10.88;;;;;;;7.17;82.19;100504.84;5040614;28;20029;-69
2021/05/14 02:34:41;;;;;;;15.68;9.27;;;;;;;7.22;82.00;100503.06;5044996;28;20021;-65
2021/05/14 02:37:07;;;;;;;18.92;10.60;;;;;;;7.02;79.89;100488.56;5026205;28;20064;-66
2021/05/14 02:39:32;;;;;;;18.00;10.77;;;;;;;6.70;81.11;100493.28;5039144;28;20479;-66
2021/05/14 02:41:58;;;;;;;18.83;9.90;;;;;;;6.46;82.18;100503.00;5030607;28;20039;-66
2021/05/14 02:44:24;;;;;;;19.15;10.57;;;;;;;6.61;83.51;100493.34;5033668;28;20046;-66
2021/05/14 02:46:49;;;;;;;17.45;9.27;;;;;;;6.70;82.12;100498.47;5038197;28;20551;-66
2021/05/14 02:49:15;;;;;;;16.30;9.02;;;;;;;6.58;81.95;100498.56;5038042;28;20051;-66
2021/05/14 02:51:40;;;;;;;17.38;10.20;;;;;;;6.57;82.61;100502.91;5031834;28;20539;-66
2021/05/14 02:54:06;;;;;;;18.70;9.50;;;;;;;6.64;83.27;100499.38;5038956;28;20024;-66
2021/05/14 02:56:34;;;;;;;16.77;9.90;;;;;;;6.65;80.74;100497.66;5040214;28;20475;-66
2021/05/14 02:58:59;;;;;;;17.75;10.15;;;;;;;6.68;80.97;100489.81;5015594;28;20021;-66
2021/05/14 03:01:25;;;;;;;19.00;10.93;;;;;;;6.72;83.59;100501.88;5037455;28;20073;-66
2021/05/14 03:03:51;;;;;;;18.77;11.60;;;;;;;6.65;84.39;100501.09;5041736;28;20036;-66
2021/05/14 03:06:17;;;;;;;21.15;11.40;;;;;;;6.58;84.15;100504.59;5036511;28;20033;-66
2021/05/14 03:08:42;;;;;;;17.25;11.00;;;;;;;6.66;83.80;100509.75;5036802;28;20096;-66
2021/05/14 03:11:08;;;;;;;21.80;11.70;;;;;;;6.46;85.00;100505.59;5029722;28;20036;-66
2021/05/14 03:13:34;;;;;;;19.35;11.80;;;;;;;6.50;84.42;100514.22;5034793;28;20380;-66
2021/05/14 03:15:59;;;;;;;17.60;11.02;;;;;;;6.47;83.38;100501.25;5032285;28;20040;-66
2021/05/14 03:18:25;;;;;;;17.67;10.80;;;;;;;6.36;84.51;100513.47;5034196;28;20040;-66
2021/05/14 03:20:50;;;;;;;18.90;11.13;;;;;;;6.20;85.23;100502.38;5038781;28;20029;-67
2021/05/14 03:23:16;;;;;;;17.70;11.57;;;;;;;6.08;85.91;100492.06;5038962;28;20376;-66
2021/05/14 03:25:41;;;;;;;18.10;10.50;;;;;;;6.21;86.84;100509.28;5011575;28;20035;-66
2021/05/14 03:28:07;;;;;;;17.88;11.02;;;;;;;6.25;86.70;100498.00;5015818;28;20087;-66
2021/05/14 03:30:33;;;;;;;15.52;9.63;;;;;;;6.31;86.61;100504.88;5037358;28;20029;-66
2021/05/14 03:32:58;;;;;;;19.63;11.23;;;;;;;6.38;86.25;100509.97;5013815;28;20060;-66
2021/05/14 03:35:24;;;;;;;18.75;10.45;;;;;;;6.34;86.27;100500.53;5034951;28;20024;-66
2021/05/14 03:37:50;;;;;;;17.95;11.65;;;;;;;6.35;86.94;100507.44;5040728;28;20095;-66
2021/05/14 03:40:19;;;;;;;17.20;10.40;;;;;;;6.36;86.80;100501.38;5032962;28;20058;-66
2021/05/14 03:42:45;;;;;;;19.95;11.70;;;;;;;6.31;86.92;100499.69;5033420;28;20074;-66
2021/05/14 03:45:11;;;;;;;16.23;10.90;;;;;;;6.30;87.02;100496.22;5031951;28;20029;-66
2021/05/14 03:47:37;;;;;;;17.48;9.25;;;;;;;6.32;87.70;100497.06;5028152;28;20482;-66
2021/05/14 03:50:04;;;;;;;17.08;10.57;;;;;;;6.24;87.73;100478.13;5033615;28;20655;-66
2021/05/14 03:52:32;;;;;;;19.80;11.02;;;;;;;6.42;87.05;100511.69;5039508;28;20017;-66
2021/05/14 03:54:57;;;;;;;;;;;;;;;6.36;87.79;100503.94;5031021;28;20044;-66
2021/05/14 03:57:23;;;;;;;14.85;9.10;;;;;;;6.38;87.22;100496.16;5040332;28;20743;-66
2021/05/14 03:59:48;;;;;;;16.63;9.18;;;;;;;6.37;86.90;100495.28;5043055;28;20032;-66
2021/05/14 04:02:14;;;;;;;17.20;9.43;;;;;;;6.30;87.26;100488.44;5038822;28;20020;-66
2021/05/14 04:04:39;;;;;;;14.48;8.38;;;;;;;6.31;87.43;100484.97;5042928;28;20029;-66
2021/05/14 04:07:06;;;;;;;16.52;8.52;;;;;;;6.27;87.12;100487.59;5034770;28;20032;-66
2021/05/14 04:09:34;;;;;;;14.68;9.05;;;;;;;6.24;87.47;100486.78;5066608;28;20035;-67
2021/05/14 04:14:35;;;;;;;16.95;9.32;;;;;;;6.28;87.54;100495.38;5054686;28;20048;-66
2021/05/14 04:17:05;;;;;;;18.85;10.43;;;;;;;6.22;87.89;100492.84;5026109;28;20477;-66
2021/05/14 04:19:31;;;;;;;18.35;10.48;;;;;;;6.21;87.50;100483.34;5044858;28;20043;-66
2021/05/14 04:21:58;;;;;;;17.05;9.90;;;;;;;6.24;87.45;100488.50;5047398;28;20098;-66
2021/05/14 04:24:25;;;;;;;16.60;9.90;;;;;;;6.16;87.47;100485.97;5037271;28;20025;-66
2021/05/14 04:26:53;;;;;;;21.27;11.05;;;;;;;6.04;87.94;100485.22;5040021;28;20028;-66
2021/05/14 04:29:19;;;;;;;;;;;;;;;6.03;87.80;100483.47;5033898;28;20053;-66
2021/05/14 04:31:46;;;;;;;19.17;9.77;;;;;;;5.97;87.68;100482.66;5044444;28;19916;-66
2021/05/14 04:34:12;;;;;;;19.95;10.30;;;;;;;6.02;87.32;100492.13;5053488;28;20032;-66
2021/05/14 04:36:38;;;;;;;17.98;10.90;;;;;;;6.01;87.15;100490.41;5050728;28;20037;-66
2021/05/14 04:39:06;;;;;;;17.70;10.82;;;;;;;6.04;86.76;100486.06;5045344;28;20032;-66
2021/05/14 04:41:32;;;;;;;17.38;9.48;;;;;;;6.04;86.01;100485.22;5043977;28;20020;-66
2021/05/14 04:43:58;;;;;;;14.30;8.68;;;;;;;6.00;85.32;100493.88;5044126;28;20024;-66
2021/05/14 04:46:23;;;;;;;15.65;9.13;;;;;;;5.97;84.65;100495.59;5051023;28;20384;-66
2021/05/14 04:48:49;;;;;;;13.52;8.27;;;;;;;5.95;83.87;100502.53;5025701;28;20376;-66
2021/05/14 04:51:14;;;;;;;13.32;8.35;;;;;;;5.88;83.73;100512.91;5061871;28;20460;-65
2021/05/14 04:53:40;;;;;;;14.25;8.23;;;;;;;5.97;83.41;100511.16;5062752;28;20115;-66
2021/05/14 04:56:05;;;;;;;13.07;7.90;;;;;;;5.85;83.92;100508.63;5058332;28;20050;-66
2021/05/14 04:58:31;;;;;;;13.85;7.78;;;;;;;5.78;84.82;100506.06;5039469;28;20532;-66
2021/05/14 05:00:58;;;;;;;12.77;7.75;;;;;;;5.77;83.22;100513.00;5036198;28;20044;-66
2021/05/14 05:03:24;;;;;;;13.07;8.00;;;;;;;5.73;82.95;100511.31;5040717;28;20531;-65
2021/05/14 05:05:51;;;;;;;16.08;8.88;;;;;;;5.78;82.84;100509.56;5035790;28;20065;-66
2021/05/14 05:08:16;;;;;;;15.10;8.75;;;;;;;5.50;83.75;100490.69;5041382;28;20476;-66
2021/05/14 05:10:42;;;;;;;12.65;7.78;;;;;;;5.52;84.73;100503.63;5044353;28;20020;-66
2021/05/14 05:13:07;;;;;;;14.32;8.38;;;;;;;5.62;84.47;100502.72;5017219;28;20029;-66
2021/05/14 05:15:33;;;;;;;15.63;9.55;;;;;;;5.80;84.14;100500.03;5036927;28;20043;-66
2021/05/14 05:17:58;;;;;;;15.82;8.98;;;;;;;6.10;84.06;100495.53;5013896;28;20132;-66
2021/05/14 05:20:24;;;;;;;15.35;8.73;;;;;;;6.25;83.60;100508.38;5036851;28;20060;-66
2021/05/14 05:22:49;;;;;;;15.63;9.38;;;;;;;6.26;83.31;100496.28;5041409;28;20017;-66
2021/05/14 05:25:15;;;;;;;15.98;9.38;;;;;;;6.46;83.58;100515.09;5040814;28;20496;-66
2021/05/14 05:27:41;;;;;;;20.52;10.02;;;;;;;6.53;83.32;100510.72;5038851;28;20029;-66
2021/05/14 05:30:07;;;;;;;20.08;10.68;;;;;;;6.57;83.40;100509.81;5041074;28;20812;-66
2021/05/14 05:32:33;;;;;;;27.85;11.18;;;;;;;6.51;83.11;100492.59;5042021;28;20036;-66
2021/05/14 05:34:59;;;;;;;26.58;9.90;;;;;;;6.39;83.87;100511.72;5039444;28;20024;-66
2021/05/14 05:37:24;;;;;;;28.27;9.68;;;;;;;6.09;84.67;100505.03;5042338;28;20024;-66
2021/05/14 05:39:50;;;;;;;36.15;12.18;;;;;;;5.97;85.61;100516.34;5036968;28;20024;-66
2021/05/14 05:42:15;;;;;;;23.25;10.05;;;;;;;5.83;86.46;100507.78;5031237;28;20021;-66
2021/05/14 05:44:41;;;;;;;25.33;9.57;;;;;;;5.57;87.10;100514.84;5041504;28;20036;-66
2021/05/14 05:47:06;;;;;;;22.75;9.65;;;;;;;5.58;87.45;100501.91;5036658;28;20025;-66
2021/05/14 05:49:32;;;;;;;17.55;10.48;;;;;;;5.73;87.35;100503.53;5033066;28;20021;-66
2021/05/14 05:51:57;;;;;;;17.55;9.35;;;;;;;5.80;87.58;100510.38;5040404;28;20472;-66
2021/05/14 05:54:23;;;;;;;16.88;9.20;;;;;;;5.90;87.07;100509.47;5039024;28;20029;-66
2021/05/14 05:56:50;;;;;;;19.45;9.63;;;;;;;6.00;87.60;100509.44;5034054;28;20021;-66
2021/05/14 05:59:18;;;;;;;16.70;8.53;;;;;;;6.13;87.14;100516.22;5030346;28;20036;-66
2021/05/14 06:01:43;;;;;;;17.38;9.25;;;;;;;6.25;86.93;100516.16;5036535;28;20048;-66
2021/05/14 06:04:09;;;;;;;14.63;7.93;;;;;;;6.29;87.19;100517.84;5038429;28;20125;-66
2021/05/14 06:06:34;;;;;;;14.60;7.65;;;;;;;6.34;87.34;100521.28;5052904;28;20408;-66
2021/05/14 06:09:00;;;;;;;14.98;8.50;;;;;;;6.53;86.96;100515.91;5044128;28;20028;-66
2021/05/14 06:11:25;;;;;;;16.45;7.13;;;;;;;6.55;86.95;100516.78;5040195;28;20528;-66
2021/05/14 06:13:52;;;;;;;15.90;8.50;;;;;;;6.66;86.83;100523.56;5053051;28;20020;-66
2021/05/14 06:16:18;;;;;;;14.95;9.63;;;;;;;6.76;87.22;100525.19;5038940;28;20052;-66
2021/05/14 06:18:48;;;;;;;15.00;9.00;;;;;;;6.87;86.52;100527.69;5038019;28;20021;-66
2021/05/14 06:21:14;;;;;;;15.52;8.95;;;;;;;6.93;86.94;100532.81;5052280;28;20473;-66
2021/05/14 06:23:40;;;;;;;13.02;7.22;;;;;;;6.91;86.39;100526.78;5038702;28;20031;-66
2021/05/14 06:26:05;;;;;;;14.32;7.13;;;;;;;7.20;86.12;100528.22;5035303;28;20033;-66
2021/05/14 06:28:31;;;;;;;13.45;7.95;;;;;;;7.33;85.62;100532.34;5036155;28;20052;-66
2021/05/14 06:30:57;;;;;;;14.77;7.38;;;;;;;7.37;85.32;100534.03;5038027;28;20040;-66
2021/05/14 06:33:22;;;;;;;15.65;7.18;;;;;;;7.60;84.63;100525.94;5036348;28;20031;-66
2021/05/14 06:35:49;;;;;;;17.02;9.40;;;;;;;7.66;85.70;100530.22;5033809;28;20033;-66
2021/05/14 06:38:15;;;;;;;16.43;8.87;;;;;;;7.80;84.51;100520.47;5037720;28;20421;-66
2021/05/14 06:40:41;;;;;;;15.25;8.90;;;;;;;7.68;84.42;100520.66;5038942;28;20025;-66
2021/05/14 06:43:06;;;;;;;14.85;6.93;;;;;;;7.81;83.29;100519.63;5031293;28;20035;-69
2021/05/14 06:45:32;;;;;;;14.15;6.93;;;;;;;7.94;83.18;100515.94;5041291;28;20033;-67
2021/05/14 06:48:07;;;;;;;16.15;8.68;;;;;;;7.94;83.62;100526.34;5038812;28;20078;-66
2021/05/14 06:50:33;;;;;;;16.77;7.57;;;;;;;8.24;82.43;100529.34;5031600;28;20064;-66
2021/05/14 06:53:01;;;;;;;15.07;8.57;;;;;;;8.36;82.42;100525.69;5030344;28;20033;-66
2021/05/14 06:55:27;;;;;;;13.60;7.75;;;;;;;8.61;82.91;100533.97;5032081;28;20029;-66
2021/05/14 06:57:52;;;;;;;15.02;8.70;;;;;;;8.61;82.13;100534.84;5037537;28;20594;-66
2021/05/14 07:00:18;;;;;;;16.27;8.57;;;;;;;8.72;82.05;100529.47;5029688;28;20064;-66
2021/05/14 07:02:45;;;;;;;18.00;8.85;;;;;;;8.83;81.26;100536.19;5021916;28;20059;-66
2021/05/14 07:05:15;;;;;;;18.77;9.43;;;;;;;8.79;81.56;100533.66;5038216;28;20028;-66
2021/05/14 07:07:41;;;;;;;15.93;8.93;;;;;;;9.12;80.78;100531.31;5035619;28;20021;-66
2021/05/14 07:10:08;;;;;;;19.23;9.80;;;;;;;9.03;80.13;100527.16;5037578;28;20090;-67
2021/05/14 07:12:35;;;;;;;21.30;11.25;;;;;;;9.09;80.26;100527.88;5018075;28;20489;-66
2021/05/14 07:15:04;;;;;;;21.07;10.40;;;;;;;9.09;80.68;100524.41;5033043;28;20025;-66
2021/05/14 07:17:30;;;;;;;23.65;11.32;;;;;;;9.26;80.68;100524.09;5032747;28;20484;-67
2021/05/14 07:19:55;;;;;;;22.17;10.65;;;;;;;9.31;79.92;100527.44;5036156;28;20025;-67
2021/05/14 07:22:21;;;;;;;21.17;10.20;;;;;;;8.99;81.00;100530.69;5034259;28;20048;-66
2021/05/14 07:24:46;;;;;;;20.50;10.50;;;;;;;8.74;81.78;100518.13;5034026;28;20041;-66
2021/05/14 07:27:13;;;;;;;22.58;10.95;;;;;;;9.08;81.63;100518.34;5032056;28;20040;-66
2021/05/14 07:29:38;;;;;;;22.38;11.13;;;;;;;9.33;81.14;100517.88;5029411;28;20039;-66
2021/05/14 07:32:04;;;;;;;22.85;11.65;;;;;;;9.49;80.42;100510.59;5025984;28;20029;-66
2021/05/14 07:34:30;;;;;;;20.75;10.68;;;;;;;9.95;78.72;100510.41;5023558;28;20033;-66
2021/05/14 07:36:56;;;;;;;21.75;10.95;;;;;;;10.01;78.64;100499.84;5031322;28;20729;-66
2021/05/14 07:39:21;;;;;;;22.55;11.02;;;;;;;10.12;78.45;100505.66;5042181;28;20036;-66
2021/05/14 07:41:47;;;;;;;22.05;10.57;;;;;;;10.04;79.05;100510.22;5042826;28;20017;-66
2021/05/14 07:44:12;;;;;;;21.50;10.10;;;;;;;9.88;78.79;100511.44;5031951;28;20029;-66
2021/05/14 07:46:38;;;;;;;21.77;11.15;;;;;;;9.56;80.31;100505.19;5058058;28;20053;-66
2021/05/14 07:49:03;;;;;;;22.27;11.35;;;;;;;9.78;79.09;100502.09;5039758;28;20021;-66
2021/05/14 07:51:29;;;;;;;19.45;10.32;;;;;;;10.07;78.65;100510.13;5036377;28;20029;-66
2021/05/14 07:53:54;;;;;;;24.92;11.60;;;;;;;10.57;77.09;100510.66;5037328;28;20597;-67
2021/05/14 07:56:20;;;;;;;18.48;10.15;;;;;;;10.83;75.67;100519.56;5041256;28;20044;-67
2021/05/14 07:58:45;;;;;;;22.95;10.90;;;;;;;10.69;77.23;100508.63;5016823;28;20055;-66
2021/05/14 08:01:11;;;;;;;19.58;10.68;;;;;;;11.06;74.86;100519.81;5055333;28;20040;-66
2021/05/14 08:03:37;;;;;;;20.73;10.50;;;;;;;10.98;74.94;100516.53;5058524;28;20097;-66
2021/05/14 08:06:02;;;;;;;17.95;10.23;;;;;;;11.42;73.97;100509.22;5040792;28;20028;-66
2021/05/14 08:08:28;;;;;;;18.45;10.52;;;;;;;11.24;73.70;100514.97;5045754;28;20098;-66
2021/05/14 08:10:55;;;;;;;18.33;9.70;;;;;;;11.20;73.18;100514.19;5065571;28;20044;-67
2021/05/14 08:13:22;;;;;;;13.25;7.32;;;;;;;10.93;74.26;100513.19;5059608;28;20037;-66
2021/05/14 08:15:47;;;;;;;14.52;9.02;;;;;;;10.90;74.69;100513.31;5050985;28;20036;-66
2021/05/14 08:18:13;;;;;;;16.35;9.18;;;;;;;11.30;74.53;100515.63;5037971;28;20427;-67
2021/05/14 08:20:40;;;;;;;15.27;8.05;;;;;;;11.69;72.11;100510.16;5039604;28;20115;-66
2021/05/14 08:23:07;;;;;;;14.13;8.32;;;;;;;11.73;71.28;100505.69;5031576;28;20032;-66
2021/05/14 08:25:35;;;;;;;14.13;8.10;;;;;;;11.94;69.95;100505.03;5060603;28;20365;-66
2021/05/14 08:28:01;;;;;;;13.55;8.02;;;;;;;11.94;69.79;100499.81;5043366;28;20484;-67
2021/05/14 08:30:28;;;;;;;15.40;8.55;;;;;;;11.47;71.76;100499.47;5038281;28;20031;-66
2021/05/14 08:32:53;;;;;;;14.02;8.73;;;;;;;11.58;70.99;100507.84;5037554;28;20051;-67
2021/05/14 08:35:19;;;;;;;14.48;9.27;;;;;;;11.29;72.64;100508.69;5060033;28;20039;-66
2021/05/14 08:37:47;;;;;;;16.13;9.05;;;;;;;11.72;71.65;100506.59;5043914;28;20162;-66
2021/05/14 08:40:13;;;;;;;15.20;8.95;;;;;;;11.83;70.16;100483.59;5041266;28;20070;-66
2021/05/14 08:42:40;;;;;;;15.18;8.25;;;;;;;11.53;71.29;100504.53;5043197;28;20112;-67
2021/05/14 08:45:10;;;;;;;14.93;9.13;;;;;;;11.95;72.35;100491.06;5036439;28;20120;-67
2021/05/14 08:47:36;;;;;;;14.18;8.90;;;;;;;12.08;69.90;100491.53;5057261;28;20557;-67
2021/05/14 08:50:03;;;;;;;16.40;9.60;;;;;;;12.07;70.10;100485.44;5036516;28;20033;-67
2021/05/14 08:52:29;;;;;;;17.47;9.27;;;;;;;12.16;69.71;100490.34;5036988;28;20075;-67
2021/05/14 08:54:58;;;;;;;14.10;8.85;;;;;;;12.25;69.56;100488.34;5028128;28;20377;-66
2021/05/14 08:57:23;;;;;;;15.40;9.48;;;;;;;12.41;68.46;100484.31;5043955;28;20501;-67
2021/05/14 08:59:51;;;;;;;15.77;9.15;;;;;;;12.93;67.26;100478.13;5031370;28;20031;-68
2021/05/14 09:02:17;;;;;;;13.55;8.63;;;;;;;12.72;67.07;100479.75;5036280;28;20033;-66
2021/05/14 09:04:42;;;;;;;15.63;8.85;;;;;;;13.04;67.90;100475.13;5042811;28;20035;-67
2021/05/14 09:07:16;;;;;;;13.60;8.90;;;;;;;13.12;66.11;100483.53;5041824;28;20075;-67
2021/05/14 09:10:02;;;;;;;15.18;8.48;;;;;;;13.41;65.64;100458.03;5047804;28;20029;-67
2021/05/14 09:12:38;;;;;;;14.98;8.82;;;;;;;13.65;65.06;100472.84;5036617;28;20458;-67
2021/05/14 09:15:28;;;;;;;14.98;8.30;;;;;;;13.80;62.58;100471.38;5039777;28;20033;-67
2021/05/14 09:18:07;;;;;;;12.27;8.20;;;;;;;14.36;60.70;100470.00;5058023;28;20391;-67
2021/05/14 09:20:45;;;;;;;14.07;8.70;;;;;;;14.96;58.88;100465.66;5062062;28;20017;-67
2021/05/14 09:23:17;;;;;;;12.93;7.38;;;;;;;15.78;57.54;100461.88;5041000;28;20487;-67
2021/05/14 09:26:05;;;;;;;14.15;8.68;;;;;;;14.34;60.84;100471.81;5055570;28;20130;-67
2021/05/14 09:28:42;;;;;;;14.98;8.82;;;;;;;13.84;61.38;100461.59;5042964;28;20478;-67
2021/05/14 09:31:18;;;;;;;15.27;9.33;;;;;;;15.02;57.25;100460.13;5044011;28;20020;-67
2021/05/14 09:33:47;;;;;;;14.45;9.40;;;;;;;15.70;53.81;100448.19;5039976;28;20610;-67
2021/05/14 09:36:16;;;;;;;13.27;8.68;;;;;;;16.49;53.96;100442.56;5038911;28;20041;-67
2021/05/14 09:38:46;;;;;;;13.68;8.75;;;;;;;17.08;52.41;100441.22;5042245;28;20052;-67
2021/05/14 09:41:34;;;;;;;11.32;8.38;;;;;;;17.14;51.34;100440.91;5059609;28;20047;-67
2021/05/14 09:44:14;;;;;;;12.00;7.65;;;;;;;17.92;49.02;100441.00;5037184;28;20123;-67
2021/05/14 09:46:47;;;;;;;11.82;8.07;;;;;;;17.83;48.92;100437.09;5042698;28;20048;-67
2021/05/14 09:49:17;;;;;;;12.55;8.60;;;;;;;17.84;50.26;100434.38;5052352;28;20365;-67
2021/05/14 09:52:04;;;;;;;12.30;7.70;;;;;;;19.44;45.07;100415.88;5040817;28;20955;-67
2021/05/14 09:54:30;;;;;;;13.68;7.82;;;;;;;19.58;45.04;100414.13;5057496;28;20090;-67
2021/05/14 09:59:56;;;;;;;10.75;7.45;;;;;;;21.47;39.41;100406.47;5058946;28;20103;-67
2021/05/14 10:02:33;;;;;;;10.63;7.30;;;;;;;23.45;35.66;100413.44;5019946;28;20032;-67
2021/05/14 10:04:59;;;;;;;11.15;7.70;;;;;;;22.44;37.72;100418.72;5056487;28;20665;-67
2021/05/14 10:07:27;;;;;;;11.38;7.65;;;;;;;21.58;39.60;100410.97;5041229;28;20032;-67
2021/05/14 10:09:57;;;;;;;11.70;7.68;;;;;;;22.93;35.99;100404.28;5059300;28;20480;-67
2021/05/14 10:12:24;;;;;;;12.30;7.55;;;;;;;21.83;36.54;100407.38;5057659;28;20051;-67
2021/05/14 10:14:51;;;;;;;11.32;7.20;;;;;;;20.82;41.33;100393.41;5042730;28;20036;-67
2021/05/14 10:17:17;;;;;;;11.25;7.75;;;;;;;19.60;43.63;100402.50;5041135;28;20020;-67
2021/05/14 10:19:43;;;;;;;12.07;7.85;;;;;;;19.52;42.79;100399.50;5059096;28;20995;-66
2021/05/14 10:22:09;;;;;;;11.50;6.35;;;;;;;18.29;45.87;100410.63;5041809;28;20028;-67
2021/05/14 10:24:42;;;;;;;11.63;8.18;;;;;;;19.26;44.54;100403.81;5043704;28;20060;-67
2021/05/14 10:27:21;;;;;;;13.75;8.45;;;;;;;18.75;45.25;100398.16;5057206;28;20032;-67
2021/05/14 10:29:55;;;;;;;11.95;8.00;;;;;;;19.39;43.59;100394.13;5043456;28;20133;-67
2021/05/14 10:32:45;;;;;;;13.70;8.95;;;;;;;21.80;39.00;100396.13;5047857;28;20111;-67
2021/05/14 10:35:24;;;;;;;14.13;8.80;;;;;;;22.91;35.11;100386.72;5055202;28;20132;-67
2021/05/14 10:38:06;;;;;;;12.98;8.30;;;;;;;23.28;35.09;100387.31;5059348;28;20024;-67
2021/05/14 10:40:36;;;;;;;10.93;8.30;;;;;;;23.77;33.77;100375.31;5041786;28;20043;-67
2021/05/14 10:43:13;;;;;;;13.40;8.88;;;;;;;23.74;33.84;100372.91;5060673;28;20585;-67
2021/05/14 10:45:40;;;;;;;13.18;8.90;;;;;;;21.64;38.05;100369.81;5059640;28;20044;-68
2021/05/14 10:48:16;;;;;;;14.15;8.93;;;;;;;22.41;38.20;100360.44;5053585;28;20116;-67
2021/05/14 10:50:42;;;;;;;13.25;9.73;;;;;;;22.26;38.09;100369.59;5041817;28;20033;-67
2021/05/14 10:53:37;;;;;;;13.38;9.13;;;;;;;22.31;37.80;100348.81;5058672;28;20033;-67
2021/05/14 10:56:08;;;;;;;12.15;8.93;;;;;;;21.96;37.88;100354.97;5060229;28;20474;-67
2021/05/14 10:58:58;;;;;;;14.10;9.32;;;;;;;21.19;39.25;100353.63;5061239;28;20112;-67
2021/05/14 11:01:29;;;;;;;14.48;9.55;;;;;;;20.77;40.15;100353.06;5059810;28;20059;-67
2021/05/14 11:03:55;;;;;;;15.68;9.13;;;;;;;20.75;39.83;100339.06;5039420;28;20814;-67
2021/05/14 11:06:22;;;;;;;15.90;9.15;;;;;;;20.09;41.35;100340.13;5039445;28;20032;-66
2021/05/14 11:09:07;;;;;;;18.45;10.43;;;;;;;20.96;40.40;100337.53;5069293;28;20035;-67
2021/05/14 11:11:33;;;;;;;17.17;10.48;;;;;;;22.84;36.50;100327.78;5063165;28;20020;-67
2021/05/14 11:14:15;;;;;;;16.70;10.48;;;;;;;21.26;39.44;100325.66;5061452;28;20501;-67
2021/05/14 11:16:45;;;;;;;15.95;10.60;;;;;;;20.57;39.79;100329.75;5061437;28;20493;-67
2021/05/14 11:19:16;;;;;;;14.65;10.32;;;;;;;21.94;39.49;100330.31;5046978;28;20028;-67
2021/05/14 11:22:11;;;;;;;13.10;9.60;;;;;;;23.07;35.61;100320.66;5044988;28;20137;-67
2021/05/14 11:24:43;;;;;;;16.55;10.93;;;;;;;21.31;37.95;100328.84;5056998;28;20468;-67
2021/05/14 11:27:11;;;;;;;23.27;11.98;;;;;;;21.49;39.79;100319.53;5061678;28;20130;-67
2021/05/14 11:29:45;;;;;;;17.23;11.45;;;;;;;20.83;40.28;100310.16;5063890;28;20035;-66